createdAt,value
2023-02-24T00:01:28.590Z,17.60
2023-02-24T00:05:02.273Z,17.90
2023-02-24T00:08:24.123Z,17.30
2023-02-24T00:11:49.238Z,16.40
2023-02-24T00:15:11.224Z,16.90
2023-02-24T00:18:33.611Z,16.10
2023-02-24T00:21:55.658Z,17.10
2023-02-24T00:25:27.128Z,17.10
2023-02-24T00:28:48.950Z,18.00
2023-02-24T00:32:13.631Z,17.00
2023-02-24T00:35:35.807Z,17.90
2023-02-24T00:39:00.314Z,17.50
2023-02-24T00:42:23.018Z,17.70
2023-02-24T00:45:56.661Z,17.30
2023-02-24T00:49:20.943Z,16.60
2023-02-24T00:52:43.315Z,17.50
2023-02-24T00:56:40.816Z,17.40
2023-02-24T01:00:39.371Z,18.50
2023-02-24T01:04:11.531Z,18.00
2023-02-24T01:07:33.664Z,16.80
2023-02-24T01:11:17.635Z,18.00
2023-02-24T01:14:39.895Z,16.80
2023-02-24T01:18:01.955Z,17.60
2023-02-24T01:25:02.671Z,18.50
2023-02-24T01:28:24.466Z,18.10
2023-02-24T01:31:48.651Z,17.50
2023-02-24T01:35:14.603Z,17.20
2023-02-24T01:38:37.107Z,17.60
2023-02-24T01:42:01.594Z,17.90
2023-02-24T01:45:29.100Z,17.10
2023-02-24T01:48:52.346Z,19.20
2023-02-24T01:52:21.003Z,16.10
2023-02-24T01:55:50.087Z,16.20
2023-02-24T01:59:24.655Z,17.60
2023-02-24T02:02:50.662Z,18.00
2023-02-24T02:06:17.806Z,16.70
2023-02-24T02:09:43.609Z,16.60
2023-02-24T02:13:08.804Z,16.50
2023-02-24T02:16:45.958Z,17.20
2023-02-24T02:20:42.819Z,17.50
2023-02-24T02:24:35.533Z,18.10
2023-02-24T02:28:20.651Z,17.30
2023-02-24T02:32:24.891Z,18.10
2023-02-24T02:35:54.575Z,16.70
2023-02-24T02:39:41.337Z,18.00
2023-02-24T02:43:26.792Z,17.60
2023-02-24T02:47:04.696Z,16.90
2023-02-24T02:50:43.302Z,17.10
2023-02-24T02:54:16.192Z,16.30
2023-02-24T02:57:47.294Z,16.10
2023-02-24T03:01:10.189Z,17.00
2023-02-24T03:04:32.153Z,17.20
2023-02-24T03:07:59.110Z,17.80
2023-02-24T03:11:21.379Z,17.40
2023-02-24T03:14:51.540Z,16.70
2023-02-24T03:18:30.025Z,17.50
2023-02-24T03:22:06.283Z,17.70
2023-02-24T03:25:46.637Z,16.80
2023-02-24T03:29:36.537Z,14.90
2023-02-24T03:33:09.949Z,18.90
2023-02-24T03:36:35.338Z,18.10
2023-02-24T03:40:14.883Z,17.90
2023-02-24T03:43:41.573Z,16.80
2023-02-24T03:47:03.641Z,17.20
2023-02-24T03:50:32.139Z,16.80
2023-02-24T03:54:14.574Z,18.90
2023-02-24T04:02:00.397Z,17.50
2023-02-24T04:05:30.825Z,18.10
2023-02-24T04:09:21.841Z,16.70
2023-02-24T04:13:07.566Z,17.80
2023-02-24T04:16:44.466Z,17.80
2023-02-24T04:20:20.642Z,16.60
2023-02-24T04:23:47.912Z,18.90
2023-02-24T04:27:12.139Z,17.90
2023-02-24T04:30:46.199Z,17.80
2023-02-24T04:34:39.511Z,17.60
2023-02-24T04:38:01.862Z,18.00
2023-02-24T04:41:28.007Z,19.00
2023-02-24T04:44:49.876Z,18.50
2023-02-24T04:48:15.013Z,18.70
2023-02-24T04:51:38.347Z,19.60
2023-02-24T04:55:00.140Z,18.80
2023-02-24T04:58:28.055Z,19.20
2023-02-24T05:02:01.385Z,19.20
2023-02-24T05:05:28.140Z,20.20
2023-02-24T05:08:55.664Z,19.30
2023-02-24T05:12:17.532Z,20.60
2023-02-24T05:15:41.849Z,20.40
2023-02-24T05:19:22.450Z,20.00
2023-02-24T05:22:44.286Z,19.90
2023-02-24T05:26:09.147Z,19.40
2023-02-24T05:29:34.230Z,21.00
2023-02-24T05:32:56.446Z,20.70
2023-02-24T05:36:19.501Z,20.10
2023-02-24T05:39:41.433Z,20.80
2023-02-24T05:43:18.854Z,20.80
2023-02-24T05:46:45.967Z,22.20
2023-02-24T05:50:09.417Z,21.60
2023-02-24T05:53:31.592Z,22.50
2023-02-24T05:56:53.453Z,20.70
2023-02-24T06:00:16.692Z,20.90
2023-02-24T06:03:38.564Z,20.00
2023-02-24T06:07:03.712Z,22.10
2023-02-24T06:10:25.832Z,19.60
2023-02-24T06:13:48.082Z,19.70
2023-02-24T06:17:11.975Z,20.90
2023-02-24T06:20:33.985Z,19.50
2023-02-24T06:23:57.713Z,21.00
2023-02-24T06:27:21.718Z,20.20
2023-02-24T06:30:43.866Z,19.00
2023-02-24T06:34:05.862Z,19.60
2023-02-24T06:37:28.334Z,18.80
2023-02-24T06:41:06.316Z,19.10
2023-02-24T06:44:28.123Z,19.70
2023-02-24T06:47:50.854Z,20.70
2023-02-24T06:51:26.835Z,19.90
2023-02-24T06:54:49.762Z,18.70
2023-02-24T06:58:16.580Z,18.20
2023-02-24T07:01:45.562Z,18.30
2023-02-24T07:05:14.560Z,17.50
2023-02-24T07:08:37.768Z,18.60
2023-02-24T07:12:02.699Z,18.50
2023-02-24T07:15:24.854Z,17.90
2023-02-24T07:19:02.755Z,16.90
2023-02-24T07:22:25.356Z,16.60
2023-02-24T07:25:47.424Z,18.80
2023-02-24T07:32:51.041Z,17.60
2023-02-24T07:36:15.087Z,16.90
2023-02-24T07:39:43.565Z,16.70
2023-02-24T07:43:06.635Z,15.90
2023-02-24T07:46:29.468Z,15.20
2023-02-24T07:49:51.333Z,15.60
2023-02-24T07:53:16.598Z,16.10
2023-02-24T07:56:46.128Z,15.50
2023-02-24T08:03:41.546Z,14.80
2023-02-24T08:07:06.003Z,15.80
2023-02-24T08:10:31.256Z,15.00
2023-02-24T08:14:02.715Z,14.60
2023-02-24T08:17:26.780Z,14.50
2023-02-24T08:20:52.509Z,14.00
2023-02-24T08:24:18.283Z,14.30
2023-02-24T08:27:43.199Z,13.40
2023-02-24T08:31:05.858Z,15.50
2023-02-24T08:34:32.052Z,14.80
2023-02-24T08:37:54.917Z,13.00
2023-02-24T08:41:20.097Z,13.20
2023-02-24T08:44:44.583Z,13.50
2023-02-24T08:48:18.417Z,14.10
2023-02-24T08:51:44.142Z,13.30
2023-02-24T08:55:10.737Z,12.50
2023-02-24T08:58:32.697Z,13.60
2023-02-24T09:02:17.756Z,12.80
2023-02-24T09:05:39.776Z,12.60
2023-02-24T09:09:17.551Z,13.50
2023-02-24T09:12:42.344Z,13.00
2023-02-24T09:16:07.487Z,12.90
2023-02-24T09:19:51.594Z,12.90
2023-02-24T09:23:20.277Z,12.40
2023-02-24T09:26:43.825Z,11.80
2023-02-24T09:30:08.304Z,11.70
2023-02-24T09:33:40.311Z,12.00
2023-02-24T09:37:05.873Z,12.70
2023-02-24T09:40:49.008Z,11.30
2023-02-24T09:44:21.715Z,11.40
2023-02-24T09:47:54.968Z,11.90
2023-02-24T09:51:25.763Z,11.10
2023-02-24T09:55:13.608Z,11.90
2023-02-24T09:58:43.739Z,10.00
2023-02-24T10:02:15.566Z,10.90
2023-02-24T10:05:48.494Z,10.40
2023-02-24T10:09:14.349Z,10.20
2023-02-24T10:12:40.229Z,10.70
2023-02-24T10:16:07.824Z,10.50
2023-02-24T10:19:31.196Z,9.50
2023-02-24T10:23:09.833Z,9.90
2023-02-24T10:27:00.755Z,9.80
2023-02-24T10:30:47.231Z,9.60
2023-02-24T10:34:13.580Z,10.70
2023-02-24T10:37:35.710Z,9.10
2023-02-24T10:40:57.777Z,8.40
2023-02-24T10:44:24.323Z,8.50
2023-02-24T10:47:57.799Z,8.70
2023-02-24T10:51:22.373Z,9.80
2023-02-24T10:55:05.207Z,8.30
2023-02-24T10:58:57.369Z,8.00
2023-02-24T11:02:30.252Z,7.30
2023-02-24T11:06:18.957Z,7.60
2023-02-24T11:09:49.624Z,8.10
2023-02-24T11:13:34.939Z,7.80
2023-02-24T11:17:16.381Z,7.20
2023-02-24T11:20:49.929Z,7.20
2023-02-24T11:24:17.085Z,7.90
2023-02-24T11:27:42.022Z,6.40
2023-02-24T11:31:45.308Z,7.30
2023-02-24T11:35:17.775Z,7.40
2023-02-24T11:38:47.029Z,6.80
2023-02-24T11:42:13.723Z,6.70
2023-02-24T11:46:34.671Z,5.70
2023-02-24T11:50:24.678Z,6.30
2023-02-24T11:54:11.741Z,6.30
2023-02-24T11:57:43.794Z,6.80
2023-02-24T12:01:48.648Z,5.90
2023-02-24T12:05:22.310Z,7.00
2023-02-24T12:08:48.235Z,5.50
2023-02-24T12:12:16.295Z,5.60
2023-02-24T12:15:56.751Z,5.90
2023-02-24T12:19:31.389Z,6.10
2023-02-24T12:22:59.374Z,6.20
2023-02-24T12:26:49.388Z,6.00
2023-02-24T12:30:38.853Z,5.60
2023-02-24T12:34:08.651Z,5.90
2023-02-24T12:38:21.842Z,6.20
2023-02-24T12:42:18.669Z,5.90
2023-02-24T12:45:43.668Z,5.10
2023-02-24T12:49:18.062Z,5.80
2023-02-24T12:52:49.759Z,5.40
2023-02-24T12:56:25.728Z,5.10
2023-02-24T12:59:47.891Z,5.50
2023-02-24T13:03:21.630Z,4.90
2023-02-24T13:07:02.492Z,4.80
2023-02-24T13:10:36.686Z,4.70
2023-02-24T13:14:04.681Z,4.10
2023-02-24T13:17:27.431Z,4.20
2023-02-24T13:20:50.812Z,3.90
2023-02-24T13:24:24.043Z,4.00
2023-02-24T13:27:56.072Z,4.30
2023-02-24T13:31:18.281Z,4.80
2023-02-24T13:34:45.022Z,4.30
2023-02-24T13:38:24.689Z,3.80
2023-02-24T13:41:46.761Z,3.60
2023-02-24T13:45:09.577Z,4.30
2023-02-24T13:48:39.940Z,3.30
2023-02-24T13:52:25.071Z,3.50
2023-02-24T13:56:09.995Z,4.20
2023-02-24T14:00:11.550Z,3.80
2023-02-24T14:03:42.478Z,3.70
2023-02-24T14:07:13.256Z,4.40
2023-02-24T14:10:39.202Z,4.10
2023-02-24T14:14:01.006Z,4.10
2023-02-24T14:17:36.288Z,3.70
2023-02-24T14:20:58.543Z,4.10
2023-02-24T14:24:25.123Z,4.00
2023-02-24T14:27:50.080Z,4.60
